createdAt,value
2022-12-20T00:02:41.436Z,11.88
2022-12-20T00:07:44.251Z,12.25
2022-12-20T00:12:47.087Z,11.90
2022-12-20T00:17:49.953Z,12.25
2022-12-20T00:22:52.957Z,12.38
2022-12-20T00:27:55.686Z,11.70
2022-12-20T00:32:58.363Z,12.68
2022-12-20T00:38:01.060Z,12.13
2022-12-20T00:43:04.701Z,11.90
2022-12-20T00:48:07.439Z,11.90
2022-12-20T00:53:10.969Z,11.68
2022-12-20T00:58:14.115Z,11.63
2022-12-20T01:03:17.145Z,12.27
2022-12-20T01:08:20.397Z,11.13
2022-12-20T01:13:23.179Z,11.50
2022-12-20T01:18:25.955Z,12.07
2022-12-20T01:23:28.759Z,10.73
2022-12-20T01:28:31.928Z,11.25
2022-12-20T01:33:35.335Z,10.88
2022-12-20T01:38:37.935Z,11.13
2022-12-20T01:43:50.144Z,10.57
2022-12-20T01:48:56.678Z,11.37
2022-12-20T01:54:03.932Z,11.30
2022-12-20T01:59:07.212Z,10.23
2022-12-20T02:04:10.544Z,10.98
2022-12-20T02:09:13.323Z,10.15
2022-12-20T02:14:32.626Z,9.98
2022-12-20T02:19:53.517Z,10.05
2022-12-20T02:24:56.248Z,10.38
2022-12-20T02:30:01.998Z,10.88
2022-12-20T02:35:08.108Z,10.73
2022-12-20T02:40:11.108Z,10.18
2022-12-20T02:45:17.131Z,10.32
2022-12-20T02:50:27.600Z,10.02
2022-12-20T02:55:45.723Z,10.00
2022-12-20T03:00:49.952Z,10.07
2022-12-20T03:05:55.447Z,9.48
2022-12-20T03:10:58.471Z,10.38
2022-12-20T03:16:01.463Z,9.32
2022-12-20T03:21:04.491Z,10.68
2022-12-20T03:26:07.504Z,9.70
2022-12-20T03:31:15.486Z,9.88
2022-12-20T03:36:23.881Z,10.63
2022-12-20T03:41:31.399Z,10.40
2022-12-20T03:46:36.158Z,9.63
2022-12-20T03:51:40.318Z,10.10
2022-12-20T03:56:42.938Z,10.38
2022-12-20T04:01:45.671Z,10.45
2022-12-20T04:06:48.521Z,9.55
2022-12-20T04:11:52.295Z,9.90
2022-12-20T04:16:55.945Z,9.90
2022-12-20T04:22:05.164Z,9.23
2022-12-20T04:27:20.602Z,9.30
2022-12-20T04:32:24.028Z,9.45
2022-12-20T04:37:26.831Z,9.35
2022-12-20T04:42:31.024Z,9.32
2022-12-20T04:47:34.132Z,9.88
2022-12-20T04:52:55.820Z,10.20
2022-12-20T04:58:03.755Z,9.90
2022-12-20T05:03:11.133Z,11.13
2022-12-20T05:08:14.328Z,10.05
2022-12-20T05:13:17.394Z,10.82
2022-12-20T05:18:22.713Z,9.88
2022-12-20T05:23:49.915Z,10.77
2022-12-20T05:28:57.499Z,10.45
2022-12-20T05:34:02.783Z,10.13
2022-12-20T05:39:09.289Z,9.88
2022-12-20T05:44:15.903Z,9.82
2022-12-20T05:49:21.768Z,10.98
2022-12-20T05:54:25.730Z,10.10
2022-12-20T05:59:50.482Z,9.35
2022-12-20T06:04:58.465Z,9.93
2022-12-20T06:10:01.206Z,10.18
2022-12-20T06:15:17.677Z,9.75
2022-12-20T06:20:20.548Z,9.30
2022-12-20T06:25:26.017Z,9.65
2022-12-20T06:30:33.676Z,10.43
2022-12-20T06:35:49.670Z,9.90
2022-12-20T06:40:52.662Z,9.95
2022-12-20T06:45:55.675Z,9.88
2022-12-20T06:50:58.949Z,10.18
2022-12-20T06:56:03.646Z,10.80
2022-12-20T07:01:08.007Z,10.38
2022-12-20T07:06:10.802Z,11.23
2022-12-20T07:11:13.568Z,9.90
2022-12-20T07:16:16.346Z,9.77
2022-12-20T07:21:19.855Z,10.68
2022-12-20T07:26:23.274Z,10.55
2022-12-20T07:31:25.916Z,10.98
2022-12-20T07:36:28.892Z,10.20
2022-12-20T07:41:31.846Z,11.35
2022-12-20T07:46:35.132Z,11.15
2022-12-20T07:51:43.558Z,10.38
2022-12-20T07:56:47.646Z,11.52
2022-12-20T08:01:50.638Z,10.63
2022-12-20T08:06:54.130Z,11.57
2022-12-20T08:11:58.533Z,11.02
2022-12-20T08:17:01.505Z,11.25
2022-12-20T08:22:04.403Z,11.48
2022-12-20T08:27:07.268Z,11.57
2022-12-20T08:32:11.130Z,11.32
2022-12-20T08:37:16.129Z,12.00
2022-12-20T08:42:18.843Z,11.95
2022-12-20T08:47:21.651Z,10.32
2022-12-20T08:52:24.342Z,11.95
2022-12-20T08:57:27.071Z,12.43
2022-12-20T09:02:29.836Z,11.82
2022-12-20T09:07:32.776Z,11.65
2022-12-20T09:12:36.806Z,11.27
2022-12-20T09:17:39.628Z,11.82
2022-12-20T09:22:42.449Z,11.93
2022-12-20T09:27:45.623Z,11.45
2022-12-20T09:32:48.340Z,12.23
2022-12-20T09:37:51.227Z,11.57
2022-12-20T09:42:53.938Z,11.02
2022-12-20T09:47:56.631Z,10.60
2022-12-20T09:52:59.431Z,11.02
2022-12-20T09:58:18.771Z,11.40
2022-12-20T10:03:23.800Z,11.10
2022-12-20T10:08:41.667Z,10.25
2022-12-20T10:13:50.464Z,10.45
2022-12-20T10:19:04.164Z,10.88
2022-12-20T10:24:20.329Z,10.07
2022-12-20T10:29:23.082Z,9.80
2022-12-20T10:34:27.091Z,10.13
2022-12-20T10:39:43.519Z,8.93
2022-12-20T10:44:46.312Z,10.00
2022-12-20T10:49:49.100Z,9.65
2022-12-20T10:54:51.826Z,9.50
2022-12-20T10:59:57.290Z,9.68
2022-12-20T11:05:01.657Z,9.50
2022-12-20T11:10:30.489Z,9.45
2022-12-20T11:15:35.205Z,9.85
2022-12-20T11:21:01.045Z,9.57
2022-12-20T11:26:18.989Z,9.43
2022-12-20T11:31:31.638Z,8.68
2022-12-20T11:37:00.760Z,8.80
2022-12-20T11:42:11.950Z,9.50
2022-12-20T11:47:17.554Z,9.50
2022-12-20T11:52:37.228Z,9.48
2022-12-20T11:58:16.485Z,9.13
2022-12-20T12:03:12.166Z,8.98
2022-12-20T12:08:19.434Z,8.27
2022-12-20T12:13:26.608Z,9.38
2022-12-20T12:18:33.829Z,8.95
2022-12-20T12:23:55.235Z,9.30
2022-12-20T12:29:02.634Z,9.82
2022-12-20T12:34:24.204Z,9.20
2022-12-20T12:39:56.198Z,9.20
2022-12-20T12:45:02.344Z,10.18
2022-12-20T12:50:09.067Z,9.38
2022-12-20T12:55:30.945Z,9.00
2022-12-20T13:01:03.620Z,9.15
2022-12-20T13:06:28.650Z,9.17
2022-12-20T13:11:31.293Z,9.57
2022-12-20T13:17:10.274Z,9.88
2022-12-20T13:27:00.643Z,10.68
2022-12-20T13:32:03.320Z,10.77
2022-12-20T13:37:25.257Z,10.27
2022-12-20T13:42:35.021Z,10.17
2022-12-20T13:47:40.720Z,10.70
2022-12-20T13:52:43.920Z,10.27
2022-12-20T13:57:46.649Z,9.88
2022-12-20T14:02:49.682Z,9.98
2022-12-20T14:08:03.456Z,10.52
2022-12-20T14:13:26.200Z,9.98
2022-12-20T14:18:28.716Z,10.48
2022-12-20T14:23:41.584Z,10.48
2022-12-20T14:28:46.008Z,9.80
2022-12-20T14:33:48.689Z,9.63
2022-12-20T14:38:52.570Z,10.68
2022-12-20T14:43:55.809Z,9.95
2022-12-20T14:49:11.692Z,11.02
2022-12-20T14:54:39.846Z,9.93
2022-12-20T14:59:56.317Z,10.07
2022-12-20T15:04:59.226Z,10.55
2022-12-20T15:10:01.914Z,10.98
2022-12-20T15:15:27.848Z,10.60
2022-12-20T15:20:27.716Z,11.27
2022-12-20T15:25:39.495Z,10.32
2022-12-20T15:30:46.786Z,12.18
2022-12-20T15:35:49.506Z,11.23
2022-12-20T15:40:53.943Z,10.65
2022-12-20T15:45:57.145Z,10.35
2022-12-20T15:51:00.125Z,12.32
2022-12-20T15:56:02.873Z,11.80
2022-12-20T16:01:05.647Z,13.02
2022-12-20T16:06:11.468Z,12.50
2022-12-20T16:11:21.839Z,12.63
2022-12-20T16:16:26.163Z,13.18
2022-12-20T16:21:31.921Z,13.73
2022-12-20T16:26:34.699Z,13.38
2022-12-20T16:31:38.623Z,13.45
2022-12-20T16:36:42.970Z,13.70
2022-12-20T16:41:45.752Z,13.63
2022-12-20T16:46:49.354Z,14.77
2022-12-20T16:51:52.253Z,13.57
2022-12-20T16:56:57.020Z,14.73
2022-12-20T17:01:59.823Z,14.23
2022-12-20T17:07:02.763Z,13.45
2022-12-20T17:12:10.589Z,14.65
2022-12-20T17:17:13.584Z,14.15
2022-12-20T17:27:35.405Z,14.13
2022-12-20T17:32:38.145Z,15.65
2022-12-20T17:37:40.893Z,13.98
2022-12-20T17:42:43.766Z,15.07
2022-12-20T17:47:46.651Z,15.38
2022-12-20T17:52:49.497Z,15.18
2022-12-20T17:57:53.204Z,15.07
2022-12-20T18:02:56.518Z,14.75
2022-12-20T18:07:59.391Z,14.95
2022-12-20T18:13:02.181Z,13.80
2022-12-20T18:18:04.821Z,14.30
2022-12-20T18:23:07.857Z,15.80
2022-12-20T18:28:10.864Z,14.70
2022-12-20T18:33:13.573Z,14.18
2022-12-20T18:38:16.888Z,14.93
2022-12-20T18:43:19.401Z,14.43
2022-12-20T18:48:23.624Z,12.35
2022-12-20T18:53:26.286Z,13.20
2022-12-20T18:58:29.125Z,14.35
2022-12-20T19:03:32.258Z,13.45
2022-12-20T19:08:34.911Z,13.60
2022-12-20T19:13:38.629Z,13.73
2022-12-20T19:18:41.851Z,14.32
2022-12-20T19:23:45.585Z,13.50
2022-12-20T19:28:48.399Z,13.00
2022-12-20T19:33:52.423Z,12.75
2022-12-20T19:38:56.431Z,13.60
2022-12-20T19:43:59.261Z,12.60
2022-12-20T19:49:02.137Z,13.48
2022-12-20T19:54:04.938Z,13.27
2022-12-20T19:59:07.409Z,13.45
2022-12-20T20:04:10.256Z,12.95
2022-12-20T20:09:12.831Z,13.13
2022-12-20T20:14:15.554Z,12.32
2022-12-20T20:19:18.408Z,12.07
2022-12-20T20:24:21.183Z,12.90
2022-12-20T20:29:26.732Z,12.20
2022-12-20T20:34:29.485Z,12.77
2022-12-20T20:39:32.288Z,12.40
2022-12-20T20:44:35.011Z,13.65
2022-12-20T20:49:37.728Z,12.88
2022-12-20T20:54:40.283Z,12.82
2022-12-20T20:59:44.610Z,14.30
2022-12-20T21:05:14.446Z,12.45
2022-12-20T21:10:10.170Z,14.55
2022-12-20T21:15:22.343Z,13.05
2022-12-20T21:20:26.690Z,12.88
2022-12-20T21:25:29.451Z,12.68
2022-12-20T21:30:32.113Z,14.13
2022-12-20T21:35:34.796Z,12.68
2022-12-20T21:40:37.418Z,12.65
2022-12-20T21:45:39.964Z,12.60
2022-12-20T21:50:42.457Z,15.90
2022-12-20T21:55:44.944Z,13.30
2022-12-20T22:00:52.613Z,13.20
2022-12-20T22:05:57.607Z,12.90
2022-12-20T22:11:01.331Z,12.50
2022-12-20T22:16:23.127Z,13.48
2022-12-20T22:21:27.260Z,14.20
2022-12-20T22:26:31.391Z,12.80
2022-12-20T22:31:34.867Z,12.93
2022-12-20T22:36:37.720Z,12.65
2022-12-20T22:41:40.900Z,13.98
2022-12-20T22:46:43.758Z,13.02
2022-12-20T22:51:59.104Z,13.07
2022-12-20T22:57:10.509Z,13.03
2022-12-20T23:02:14.087Z,13.27
2022-12-20T23:07:17.109Z,14.02
2022-12-20T23:12:38.491Z,13.18
2022-12-20T23:17:42.250Z,13.90
2022-12-20T23:22:45.416Z,13.40
2022-12-20T23:27:49.184Z,13.75
2022-12-20T23:32:52.103Z,13.60
2022-12-20T23:37:56.211Z,13.43
2022-12-20T23:42:58.874Z,13.27
2022-12-20T23:48:01.529Z,13.93
2022-12-20T23:53:04.237Z,14.32
2022-12-20T23:58:07.047Z,14.00
